Time;durP1;ratioP1;P1;durP2;ratioP2;P2;SDS_P1;SDS_P2;PMS_P1;PMS_P2;Temp;Humidity;BMP_temperature;BMP_pressure;BME280_temperature;BME280_humidity;BME280_pressure;Samples;Min_cycle;Max_cycle;Signal;HPM_P1;HPM_P2
2023/06/02 00:01:20;;;;;;;6.70;1.83;;;;;;;;;;6214760;23;20170;-87
2023/06/02 00:03:48;;;;;;;14.43;1.73;;;;;;;;;;6214649;23;20185;-87
2023/06/02 00:06:18;;;;;;;2.73;2.60;;;;;;;;;;6214124;23;20174;-86
2023/06/02 00:08:46;;;;;;;5.63;3.67;;;;;;;;;;6215225;23;20179;-87
2023/06/02 00:11:16;;;;;;;1.57;1.47;;;;;;;;;;6214166;23;20194;-87
2023/06/02 00:13:45;;;;;;;8.23;2.93;;;;;;;;;;6214211;23;20175;-87
2023/06/02 00:16:15;;;;;;;3.30;1.37;;;;;;;;;;6214013;23;20177;-87
2023/06/02 00:18:44;;;;;;;3.83;2.13;;;;;;;;;;6214381;23;20170;-86
2023/06/02 00:21:14;;;;;;;5.43;1.70;;;;;;;;;;6214417;23;20169;-86
2023/06/02 00:23:42;;;;;;;1.43;1.33;;;;;;;;;;6215043;23;20174;-87
2023/06/02 00:26:11;;;;;;;2.03;1.90;;;;;;;;;;6214298;23;20178;-82
2023/06/02 00:28:41;;;;;;;2.13;2.03;;;;;;;;;;6214376;23;20199;-82
2023/06/02 00:31:10;;;;;;;1.47;1.40;;;;;;;;;;6214365;23;20194;-82
2023/06/02 00:33:39;;;;;;;4.63;2.20;;;;;;;;;;6214335;23;20176;-82
2023/06/02 00:36:08;;;;;;;2.23;1.60;;;;;;;;;;6214766;23;20178;-82
2023/06/02 00:38:37;;;;;;;4.93;2.53;;;;;;;;;;6214114;23;20174;-82
2023/06/02 00:41:05;;;;;;;1.37;1.27;;;;;;;;;;6213888;23;20167;-82
2023/06/02 00:43:34;;;;;;;7.03;2.17;;;;;;;;;;6214423;23;20171;-82
2023/06/02 00:46:04;;;;;;;3.10;1.50;;;;;;;;;;6214858;23;20174;-87
2023/06/02 00:48:33;;;;;;;3.97;2.30;;;;;;;;;;6214001;23;20202;-87
2023/06/02 00:51:02;;;;;;;1.97;1.87;;;;;;;;;;6213905;23;20194;-87
2023/06/02 00:53:31;;;;;;;2.63;2.43;;;;;;;;;;6214303;23;20210;-87
2023/06/02 00:56:00;;;;;;;4.37;2.47;;;;;;;;;;6213846;23;20177;-87
2023/06/02 00:58:30;;;;;;;6.07;1.73;;;;;;;;;;6213704;23;20186;-87
2023/06/02 01:00:59;;;;;;;1.67;1.57;;;;;;;;;;6214633;23;20256;-87
2023/06/02 01:03:29;;;;;;;2.50;2.30;;;;;;;;;;6213864;23;20170;-87
2023/06/02 01:06:00;;;;;;;1.50;1.43;;;;;;;;;;6213402;23;20166;-87
2023/06/02 01:08:29;;;;;;;5.60;3.77;;;;;;;;;;6214102;23;20178;-87
2023/06/02 01:10:58;;;;;;;10.03;2.23;;;;;;;;;;6213464;23;20186;-86
2023/06/02 01:13:27;;;;;;;4.53;1.57;;;;;;;;;;6213519;23;20185;-87
2023/06/02 01:15:55;;;;;;;9.53;1.50;;;;;;;;;;6214275;23;20178;-87
2023/06/02 01:18:25;;;;;;;1.23;1.23;;;;;;;;;;6214155;23;20200;-86
2023/06/02 01:20:57;;;;;;;2.37;1.27;;;;;;;;;;6213648;23;20166;-86
2023/06/02 01:23:29;;;;;;;1.57;1.47;;;;;;;;;;6213612;23;20244;-87
2023/06/02 01:25:58;;;;;;;2.93;2.00;;;;;;;;;;6213820;23;20250;-87
2023/06/02 01:28:27;;;;;;;2.13;1.30;;;;;;;;;;6213711;23;20196;-86
2023/06/02 01:30:59;;;;;;;3.40;2.37;;;;;;;;;;6213258;23;20198;-82
2023/06/02 01:33:31;;;;;;;2.73;1.70;;;;;;;;;;6213443;23;20198;-82
2023/06/02 01:36:00;;;;;;;1.00;1.00;;;;;;;;;;6213695;23;20178;-82
2023/06/02 01:38:31;;;;;;;6.67;2.03;;;;;;;;;;6213405;23;20174;-82
2023/06/02 01:41:01;;;;;;;1.80;1.70;;;;;;;;;;6213749;23;20177;-82
2023/06/02 01:43:32;;;;;;;1.20;1.20;;;;;;;;;;6213952;23;20171;-82
2023/06/02 01:46:01;;;;;;;3.27;1.83;;;;;;;;;;6213057;23;20202;-83
2023/06/02 01:48:30;;;;;;;2.30;1.43;;;;;;;;;;6213713;23;20175;-83
2023/06/02 01:50:59;;;;;;;2.47;1.37;;;;;;;;;;6213757;23;20190;-83
2023/06/02 01:53:27;;;;;;;6.23;2.00;;;;;;;;;;6213544;23;20206;-83
2023/06/02 01:55:56;;;;;;;5.20;1.87;;;;;;;;;;6213160;23;20177;-87
2023/06/02 01:58:26;;;;;;;6.43;2.53;;;;;;;;;;6214034;23;20189;-87
2023/06/02 02:00:56;;;;;;;6.20;1.87;;;;;;;;;;6214213;23;20181;-87
2023/06/02 02:03:24;;;;;;;2.43;2.20;;;;;;;;;;6213615;23;20178;-87
2023/06/02 02:05:53;;;;;;;2.00;1.83;;;;;;;;;;6213603;23;20253;-87
2023/06/02 02:08:22;;;;;;;5.87;2.00;;;;;;;;;;6214104;23;20178;-87
2023/06/02 02:10:51;;;;;;;3.80;1.87;;;;;;;;;;6213732;23;20182;-87
2023/06/02 02:13:19;;;;;;;4.37;2.00;;;;;;;;;;6213403;23;20178;-83
2023/06/02 02:15:49;;;;;;;2.27;1.17;;;;;;;;;;6213562;23;20175;-83
2023/06/02 02:18:20;;;;;;;1.57;1.47;;;;;;;;;;6214009;23;20213;-83
2023/06/02 02:20:49;;;;;;;4.70;2.00;;;;;;;;;;6213137;23;20181;-82
2023/06/02 02:23:17;;;;;;;6.80;2.70;;;;;;;;;;6213683;23;20185;-82
2023/06/02 02:25:46;;;;;;;2.00;1.90;;;;;;;;;;6213806;23;20174;-82
2023/06/02 02:28:15;;;;;;;4.07;1.73;;;;;;;;;;6212843;23;20202;-82
2023/06/02 02:30:43;;;;;;;2.40;2.20;;;;;;;;;;6213371;23;20174;-83
2023/06/02 02:33:13;;;;;;;2.33;2.00;;;;;;;;;;6213429;23;20198;-83
2023/06/02 02:35:42;;;;;;;3.87;1.40;;;;;;;;;;6214634;23;20176;-83
2023/06/02 02:38:10;;;;;;;3.00;2.50;;;;;;;;;;6215207;23;20237;-83
2023/06/02 02:40:39;;;;;;;3.50;2.00;;;;;;;;;;6215594;23;20170;-83
2023/06/02 02:43:08;;;;;;;4.13;2.00;;;;;;;;;;6215096;23;20214;-83
2023/06/02 02:45:36;;;;;;;3.40;1.53;;;;;;;;;;6215442;23;20170;-83
2023/06/02 02:48:06;;;;;;;1.87;1.83;;;;;;;;;;6215540;23;20181;-82
2023/06/02 02:50:36;;;;;;;1.70;1.40;;;;;;;;;;6215266;23;20179;-83
2023/06/02 02:53:04;;;;;;;1.53;1.43;;;;;;;;;;6214446;23;20190;-83
2023/06/02 02:55:33;;;;;;;1.67;1.57;;;;;;;;;;6215267;23;20202;-86
2023/06/02 02:58:02;;;;;;;1.70;1.30;;;;;;;;;;6214989;23;20265;-87
2023/06/02 03:00:32;;;;;;;5.80;3.83;;;;;;;;;;6214964;23;20175;-87
2023/06/02 03:03:01;;;;;;;11.07;2.07;;;;;;;;;;6215059;23;20178;-87
2023/06/02 03:05:34;;;;;;;6.13;2.57;;;;;;;;;;6215524;23;20175;-87
2023/06/02 03:08:07;;;;;;;2.63;2.03;;;;;;;;;;6215024;23;20178;-87
2023/06/02 03:10:35;;;;;;;6.30;2.50;;;;;;;;;;6214756;23;20197;-87
2023/06/02 03:13:03;;;;;;;1.93;1.83;;;;;;;;;;6215128;23;20217;-87
2023/06/02 03:15:33;;;;;;;1.57;1.47;;;;;;;;;;6215721;23;20178;-86
2023/06/02 03:18:03;;;;;;;2.37;1.77;;;;;;;;;;6214790;23;20213;-86
2023/06/02 03:20:32;;;;;;;3.23;2.00;;;;;;;;;;6214680;23;20178;-86
2023/06/02 03:23:01;;;;;;;3.03;1.60;;;;;;;;;;6214922;23;20167;-87
2023/06/02 03:25:31;;;;;;;3.90;1.73;;;;;;;;;;6215671;23;20181;-87
2023/06/02 03:27:59;;;;;;;1.63;1.53;;;;;;;;;;6214542;23;20256;-87
2023/06/02 03:30:27;;;;;;;3.87;1.50;;;;;;;;;;6215419;23;20202;-87
2023/06/02 03:32:56;;;;;;;3.70;2.20;;;;;;;;;;6214666;23;20198;-87
2023/06/02 03:35:24;;;;;;;1.20;1.10;;;;;;;;;;6214671;23;20261;-87
2023/06/02 03:37:53;;;;;;;2.83;1.57;;;;;;;;;;6214691;23;20177;-87
2023/06/02 03:40:21;;;;;;;8.53;3.00;;;;;;;;;;6214700;23;20174;-86
2023/06/02 03:42:51;;;;;;;1.23;1.00;;;;;;;;;;6214712;23;20241;-86
2023/06/02 03:45:20;;;;;;;4.13;2.20;;;;;;;;;;6214649;23;20181;-87
2023/06/02 03:47:48;;;;;;;4.03;2.80;;;;;;;;;;6214077;23;20170;-87
2023/06/02 03:50:17;;;;;;;3.53;1.67;;;;;;;;;;6214555;23;20202;-86
2023/06/02 03:52:45;;;;;;;2.80;1.60;;;;;;;;;;6214079;23;20186;-87
2023/06/02 03:55:14;;;;;;;5.63;1.90;;;;;;;;;;6214536;23;20229;-87
2023/06/02 03:57:43;;;;;;;7.73;1.47;;;;;;;;;;6214787;23;20179;-87
2023/06/02 04:00:14;;;;;;;7.77;1.80;;;;;;;;;;6214293;23;20243;-83
2023/06/02 04:02:42;;;;;;;4.73;2.10;;;;;;;;;;6214404;23;20162;-83
2023/06/02 04:05:11;;;;;;;2.13;1.67;;;;;;;;;;6214461;23;20228;-83
2023/06/02 04:07:40;;;;;;;2.07;2.00;;;;;;;;;;6214498;23;20170;-83
2023/06/02 04:10:09;;;;;;;7.10;3.37;;;;;;;;;;6214292;23;20177;-83
2023/06/02 04:12:38;;;;;;;1.13;1.13;;;;;;;;;;6214629;23;20193;-83
2023/06/02 04:15:06;;;;;;;1.43;1.33;;;;;;;;;;6214258;23;20174;-83
2023/06/02 04:17:37;;;;;;;1.40;1.30;;;;;;;;;;6214073;23;20185;-83
2023/06/02 04:20:07;;;;;;;1.00;1.00;;;;;;;;;;6214113;23;20178;-83
2023/06/02 04:22:36;;;;;;;4.83;2.07;;;;;;;;;;6214295;23;20172;-83
2023/06/02 04:25:05;;;;;;;3.03;2.17;;;;;;;;;;6213946;23;20174;-82
2023/06/02 04:27:34;;;;;;;4.23;1.40;;;;;;;;;;6214336;23;20194;-83
2023/06/02 04:30:03;;;;;;;1.20;1.10;;;;;;;;;;6214472;23;20192;-83
2023/06/02 04:32:32;;;;;;;1.67;1.57;;;;;;;;;;6214102;23;20265;-83
2023/06/02 04:35:02;;;;;;;1.67;1.40;;;;;;;;;;6213243;23;20181;-83
2023/06/02 04:37:32;;;;;;;1.57;1.33;;;;;;;;;;6214181;23;20167;-83
2023/06/02 04:40:01;;;;;;;6.37;2.13;;;;;;;;;;6214526;23;20198;-83
2023/06/02 04:42:32;;;;;;;1.53;1.47;;;;;;;;;;6213748;23;20181;-86
2023/06/02 04:45:01;;;;;;;5.30;2.50;;;;;;;;;;6214276;23;20178;-86
2023/06/02 04:47:29;;;;;;;2.77;1.77;;;;;;;;;;6214432;23;20178;-86
2023/06/02 04:49:58;;;;;;;5.10;4.30;;;;;;;;;;6213862;23;20185;-86
2023/06/02 04:52:28;;;;;;;2.43;2.07;;;;;;;;;;6213907;23;20182;-83
2023/06/02 04:54:56;;;;;;;1.93;1.90;;;;;;;;;;6213623;23;20205;-83
2023/06/02 04:57:25;;;;;;;2.53;1.43;;;;;;;;;;6213905;23;20177;-83
2023/06/02 04:59:54;;;;;;;3.30;2.27;;;;;;;;;;6213658;23;20179;-83
2023/06/02 05:02:22;;;;;;;4.53;1.43;;;;;;;;;;6214160;23;20184;-83
2023/06/02 05:04:51;;;;;;;1.47;1.47;;;;;;;;;;6213927;23;20177;-83
2023/06/02 05:07:19;;;;;;;3.40;1.77;;;;;;;;;;6213674;23;20177;-83
2023/06/02 05:09:50;;;;;;;5.33;1.47;;;;;;;;;;6213847;23;20182;-83
2023/06/02 05:12:19;;;;;;;11.57;2.23;;;;;;;;;;6214149;23;20176;-83
2023/06/02 05:14:48;;;;;;;3.80;1.90;;;;;;;;;;6213190;23;20198;-83
2023/06/02 05:17:21;;;;;;;4.40;1.33;;;;;;;;;;6213858;23;20174;-83
2023/06/02 05:19:50;;;;;;;1.80;1.37;;;;;;;;;;6213807;23;20174;-83
2023/06/02 05:22:19;;;;;;;7.20;2.00;;;;;;;;;;6213945;23;20178;-83
2023/06/02 05:24:47;;;;;;;3.07;2.40;;;;;;;;;;6213338;23;20170;-82
2023/06/02 05:27:17;;;;;;;2.90;2.70;;;;;;;;;;6213412;23;20197;-83
2023/06/02 05:29:46;;;;;;;1.03;1.03;;;;;;;;;;6213570;23;20179;-83
2023/06/02 05:32:14;;;;;;;1.67;1.63;;;;;;;;;;6213327;23;20181;-83
2023/06/02 05:34:44;;;;;;;1.90;1.80;;;;;;;;;;6213377;23;20193;-83
2023/06/02 05:37:12;;;;;;;3.97;2.57;;;;;;;;;;6213505;23;20177;-83
2023/06/02 05:39:41;;;;;;;7.57;2.40;;;;;;;;;;6213540;23;20182;-83
2023/06/02 05:42:10;;;;;;;4.23;1.87;;;;;;;;;;6213370;23;20174;-82
2023/06/02 05:44:40;;;;;;;5.77;4.13;;;;;;;;;;6214055;23;20209;-86
2023/06/02 05:47:09;;;;;;;2.73;1.97;;;;;;;;;;6213857;23;20206;-86
2023/06/02 05:49:37;;;;;;;2.00;1.90;;;;;;;;;;6213823;23;20174;-86
2023/06/02 05:52:08;;;;;;;3.20;2.37;;;;;;;;;;6213884;23;20188;-86
2023/06/02 05:54:37;;;;;;;4.83;2.30;;;;;;;;;;6213428;23;20232;-86
2023/06/02 05:57:07;;;;;;;7.00;2.57;;;;;;;;;;6213432;23;20194;-86
2023/06/02 05:59:35;;;;;;;3.50;1.47;;;;;;;;;;6213493;23;20170;-87
2023/06/02 06:02:06;;;;;;;23.43;2.03;;;;;;;;;;6213915;23;20206;-86
2023/06/02 06:04:38;;;;;;;5.27;2.33;;;;;;;;;;6213874;23;20170;-87
2023/06/02 06:07:07;;;;;;;2.27;1.57;;;;;;;;;;6212965;23;20167;-85
2023/06/02 06:09:36;;;;;;;3.60;1.53;;;;;;;;;;6214332;23;20175;-85
2023/06/02 06:12:05;;;;;;;3.07;1.50;;;;;;;;;;6215793;23;20206;-81
2023/06/02 06:14:35;;;;;;;4.33;1.20;;;;;;;;;;6214718;23;20186;-82
2023/06/02 06:17:05;;;;;;;2.00;1.50;;;;;;;;;;6215450;23;20208;-81
2023/06/02 06:19:34;;;;;;;9.47;2.70;;;;;;;;;;6215520;23;20175;-81
2023/06/02 06:22:03;;;;;;;3.10;2.03;;;;;;;;;;6215082;23;20192;-81
2023/06/02 06:24:32;;;;;;;5.27;4.57;;;;;;;;;;6215347;23;20171;-81
2023/06/02 06:27:00;;;;;;;6.17;3.80;;;;;;;;;;6215115;23;20217;-86
2023/06/02 06:29:29;;;;;;;2.10;1.87;;;;;;;;;;6215702;23;20209;-86
2023/06/02 06:31:58;;;;;;;9.50;1.90;;;;;;;;;;6215392;23;20171;-86
2023/06/02 06:34:28;;;;;;;1.30;1.30;;;;;;;;;;6215448;23;20222;-86
2023/06/02 06:36:56;;;;;;;4.13;1.80;;;;;;;;;;6215494;23;20168;-86
2023/06/02 06:39:25;;;;;;;7.90;1.57;;;;;;;;;;6215311;23;20182;-86
2023/06/02 06:41:53;;;;;;;3.37;1.20;;;;;;;;;;6215854;23;20205;-86
2023/06/02 06:44:22;;;;;;;1.30;1.20;;;;;;;;;;6215057;23;20178;-86
2023/06/02 06:46:52;;;;;;;2.17;2.07;;;;;;;;;;6215113;23;20178;-86
2023/06/02 06:49:22;;;;;;;3.23;2.03;;;;;;;;;;6215631;23;20171;-86
2023/06/02 06:51:52;;;;;;;4.07;2.77;;;;;;;;;;6215994;23;20183;-86
2023/06/02 06:54:22;;;;;;;2.47;2.20;;;;;;;;;;6215275;23;20209;-86
2023/06/02 06:56:50;;;;;;;2.00;1.53;;;;;;;;;;6215116;23;20178;-86
2023/06/02 06:59:19;;;;;;;7.50;2.83;;;;;;;;;;6215286;23;20174;-86
2023/06/02 07:01:48;;;;;;;4.03;1.63;;;;;;;;;;6215439;23;20231;-86
2023/06/02 07:04:17;;;;;;;4.30;2.07;;;;;;;;;;6215470;23;20171;-86
2023/06/02 07:06:46;;;;;;;13.57;2.13;;;;;;;;;;6215161;23;20176;-87
2023/06/02 07:09:16;;;;;;;1.73;1.03;;;;;;;;;;6215634;23;20186;-86
2023/06/02 07:11:45;;;;;;;1.50;1.40;;;;;;;;;;6215522;23;20187;-87
2023/06/02 07:14:14;;;;;;;7.37;2.30;;;;;;;;;;6215160;23;20229;-87
2023/06/02 07:16:50;;;;;;;7.43;1.70;;;;;;;;;;6215407;23;20176;-87
2023/06/02 07:19:22;;;;;;;1.10;1.10;;;;;;;;;;6214681;23;20179;-86
2023/06/02 07:21:51;;;;;;;8.80;1.47;;;;;;;;;;6213701;23;20340;-86
2023/06/02 07:24:21;;;;;;;1.63;1.53;;;;;;;;;;6214983;23;20230;-87
2023/06/02 07:26:50;;;;;;;1.00;1.00;;;;;;;;;;6215146;23;20543;-87
2023/06/02 07:29:19;;;;;;;6.70;1.80;;;;;;;;;;6214877;23;20175;-87
2023/06/02 07:31:48;;;;;;;2.07;1.00;;;;;;;;;;6214328;23;20172;-87
2023/06/02 07:34:18;;;;;;;5.83;2.50;;;;;;;;;;6215116;23;20247;-87
2023/06/02 07:36:47;;;;;;;1.53;1.10;;;;;;;;;;6214797;23;20179;-87
2023/06/02 07:39:16;;;;;;;7.60;1.63;;;;;;;;;;6214340;23;20187;-86
2023/06/02 07:41:46;;;;;;;2.57;1.40;;;;;;;;;;6214584;23;20282;-87
2023/06/02 07:44:16;;;;;;;1.97;1.80;;;;;;;;;;6214950;23;20222;-87
2023/06/02 07:46:45;;;;;;;1.13;1.13;;;;;;;;;;6214479;23;20208;-87
2023/06/02 07:49:14;;;;;;;2.40;1.67;;;;;;;;;;6215021;23;20234;-87
2023/06/02 07:51:43;;;;;;;3.73;1.80;;;;;;;;;;6214538;23;20291;-86
2023/06/02 07:54:12;;;;;;;10.37;2.70;;;;;;;;;;6214337;23;20212;-87
2023/06/02 07:56:42;;;;;;;3.30;2.03;;;;;;;;;;6214611;23;20188;-87
2023/06/02 07:59:12;;;;;;;0.97;0.97;;;;;;;;;;6215251;23;20177;-87
2023/06/02 08:01:40;;;;;;;2.23;1.93;;;;;;;;;;6214535;23;20180;-87
2023/06/02 08:04:10;;;;;;;5.33;1.50;;;;;;;;;;6214590;23;20176;-87
2023/06/02 08:06:38;;;;;;;1.03;1.03;;;;;;;;;;6214708;23;20169;-87
2023/06/02 08:09:10;;;;;;;2.40;1.53;;;;;;;;;;6214438;23;20173;-86
2023/06/02 08:11:38;;;;;;;1.30;1.20;;;;;;;;;;6213919;23;20196;-86
2023/06/02 08:14:07;;;;;;;2.23;2.10;;;;;;;;;;6214578;23;20209;-87
2023/06/02 08:16:37;;;;;;;1.20;1.13;;;;;;;;;;6214946;23;20292;-86
2023/06/02 08:19:28;;;;;;;1.30;1.27;;;;;;;;;;6214073;23;20184;-86
2023/06/02 08:21:57;;;;;;;2.90;2.60;;;;;;;;;;6214739;23;20196;-82
2023/06/02 08:24:31;;;;;;;3.50;1.20;;;;;;;;;;6214848;23;20174;-82
2023/06/02 08:27:00;;;;;;;12.10;2.10;;;;;;;;;;6214203;23;20248;-82
2023/06/02 08:29:30;;;;;;;3.50;1.60;;;;;;;;;;6213488;23;20184;-82
2023/06/02 08:32:00;;;;;;;1.80;1.23;;;;;;;;;;6214308;23;20176;-83
2023/06/02 08:34:30;;;;;;;3.10;1.30;;;;;;;;;;6214043;23;20211;-82
2023/06/02 08:37:00;;;;;;;3.23;2.30;;;;;;;;;;6214093;23;20211;-82
2023/06/02 08:39:29;;;;;;;3.73;1.67;;;;;;;;;;6214077;23;20177;-82
2023/06/02 08:42:01;;;;;;;2.70;2.00;;;;;;;;;;6214289;23;20173;-83
2023/06/02 08:44:41;;;;;;;1.03;0.93;;;;;;;;;;6212328;23;20180;-82
2023/06/02 08:47:26;;;;;;;2.50;1.30;;;;;;;;;;6211027;23;20195;-83
2023/06/02 08:49:55;;;;;;;1.50;1.27;;;;;;;;;;6212248;23;20168;-82
2023/06/02 08:52:25;;;;;;;2.37;1.73;;;;;;;;;;6211495;23;20199;-85
2023/06/02 08:54:58;;;;;;;23.10;2.27;;;;;;;;;;6211600;23;20205;-84
2023/06/02 08:57:31;;;;;;;5.20;1.67;;;;;;;;;;6213095;23;20180;-85
2023/06/02 09:00:05;;;;;;;0.97;0.97;;;;;;;;;;6213854;23;20259;-83
2023/06/02 09:02:37;;;;;;;2.97;1.43;;;;;;;;;;6213784;23;20174;-81
2023/06/02 09:05:07;;;;;;;5.23;2.10;;;;;;;;;;6213163;23;20168;-84
2023/06/02 09:07:46;;;;;;;1.47;1.23;;;;;;;;;;6213398;23;20184;-83
2023/06/02 09:10:29;;;;;;;3.90;1.27;;;;;;;;;;6212641;23;20173;-84
2023/06/02 09:12:59;;;;;;;4.60;2.83;;;;;;;;;;6213076;23;20169;-84
2023/06/02 09:15:28;;;;;;;1.77;1.47;;;;;;;;;;6213142;23;20220;-83
2023/06/02 09:18:17;;;;;;;4.77;1.90;;;;;;;;;;6212886;23;20270;-85
2023/06/02 09:20:50;;;;;;;6.90;1.93;;;;;;;;;;6212742;23;20174;-83
2023/06/02 09:23:40;;;;;;;3.13;1.97;;;;;;;;;;6212700;23;20239;-82
2023/06/02 09:26:21;;;;;;;2.20;1.47;;;;;;;;;;6213679;23;20240;-83
2023/06/02 09:29:04;;;;;;;1.70;1.60;;;;;;;;;;6213763;23;20197;-83
2023/06/02 09:31:50;;;;;;;2.53;1.50;;;;;;;;;;6212409;23;20192;-83
2023/06/02 09:34:22;;;;;;;3.97;2.87;;;;;;;;;;6212758;23;20190;-81
2023/06/02 09:36:58;;;;;;;5.57;2.13;;;;;;;;;;6213264;23;20199;-84
2023/06/02 09:39:38;;;;;;;6.70;1.53;;;;;;;;;;6213034;23;20188;-82
2023/06/02 09:42:16;;;;;;;4.17;2.17;;;;;;;;;;6212545;23;20273;-84
2023/06/02 09:45:01;;;;;;;7.47;2.00;;;;;;;;;;6212289;23;20184;-86
2023/06/02 09:47:31;;;;;;;3.50;0.90;;;;;;;;;;6186953;23;20200;-84
2023/06/02 09:50:14;;;;;;;10.20;1.13;;;;;;;;;;6213241;23;20180;-85
2023/06/02 09:53:15;;;;;;;3.43;1.90;;;;;;;;;;6212304;23;20178;-85
2023/06/02 09:56:03;;;;;;;1.73;1.63;;;;;;;;;;6212162;23;20217;-84
2023/06/02 09:58:40;;;;;;;8.00;2.40;;;;;;;;;;6214180;23;20244;-82
2023/06/02 10:04:19;;;;;;;2.50;2.03;;;;;;;;;;6211964;23;20177;-84
2023/06/02 10:07:19;;;;;;;4.40;2.17;;;;;;;;;;6212961;23;20182;-83
2023/06/02 10:10:18;;;;;;;8.70;2.43;;;;;;;;;;6210965;23;20181;-88
2023/06/02 10:13:21;;;;;;;4.13;2.90;;;;;;;;;;6212320;23;20193;-82
2023/06/02 10:16:08;;;;;;;4.40;3.73;;;;;;;;;;6212635;23;20220;-81
2023/06/02 10:18:59;;;;;;;3.00;2.20;;;;;;;;;;6212445;23;20182;-81
2023/06/02 10:21:47;;;;;;;8.20;2.37;;;;;;;;;;6212839;23;20185;-82
2023/06/02 10:24:23;;;;;;;5.73;1.00;;;;;;;;;;6212969;23;20173;-82
2023/06/02 10:27:10;;;;;;;0.80;0.80;;;;;;;;;;6212356;23;20192;-82
2023/06/02 10:29:44;;;;;;;13.13;1.57;;;;;;;;;;6212467;23;20177;-82
2023/06/02 10:32:27;;;;;;;2.50;2.30;;;;;;;;;;6187263;23;20173;-81
2023/06/02 10:35:05;;;;;;;16.53;2.27;;;;;;;;;;6209606;23;20173;-83
2023/06/02 10:37:37;;;;;;;3.53;1.73;;;;;;;;;;6209503;23;20284;-82
2023/06/02 10:40:10;;;;;;;3.80;1.70;;;;;;;;;;6210186;23;20217;-81
2023/06/02 10:42:57;;;;;;;7.40;3.20;;;;;;;;;;6209832;23;20228;-87
2023/06/02 10:45:41;;;;;;;2.07;1.90;;;;;;;;;;6209625;23;20210;-87
2023/06/02 10:48:28;;;;;;;1.07;1.07;;;;;;;;;;6210760;23;20193;-88
2023/06/02 10:50:59;;;;;;;11.10;3.73;;;;;;;;;;6210697;23;20181;-87
2023/06/02 10:53:37;;;;;;;1.70;1.13;;;;;;;;;;6209976;23;20216;-88
2023/06/02 10:56:25;;;;;;;3.37;2.10;;;;;;;;;;6211260;23;20211;-88
2023/06/02 10:58:54;;;;;;;1.97;1.83;;;;;;;;;;6211811;23;20231;-88
2023/06/02 11:01:50;;;;;;;6.67;3.40;;;;;;;;;;6211966;23;20167;-88
2023/06/02 11:04:25;;;;;;;4.47;2.97;;;;;;;;;;6212034;23;20175;-88
2023/06/02 11:07:22;;;;;;;1.87;1.77;;;;;;;;;;6212067;23;20228;-88
2023/06/02 11:10:01;;;;;;;20.23;3.83;;;;;;;;;;6212983;23;20228;-87
2023/06/02 11:12:55;;;;;;;5.57;3.17;;;;;;;;;;6213294;23;20249;-87
2023/06/02 11:15:25;;;;;;;2.53;1.73;;;;;;;;;;6208375;23;20215;-87
2023/06/02 11:18:17;;;;;;;10.93;2.87;;;;;;;;;;6212137;23;20321;-83
2023/06/02 11:20:49;;;;;;;1.77;1.67;;;;;;;;;;6213747;23;20246;-83
2023/06/02 11:23:20;;;;;;;31.47;4.43;;;;;;;;;;6214406;23;20210;-83
2023/06/02 11:26:09;;;;;;;3.00;2.80;;;;;;;;;;6214143;23;20166;-83
2023/06/02 11:28:50;;;;;;;3.90;2.20;;;;;;;;;;6214071;23;20198;-83
2023/06/02 11:31:31;;;;;;;0.70;0.70;;;;;;;;;;6214747;23;20210;-84
2023/06/02 11:34:17;;;;;;;9.67;2.87;;;;;;;;;;6215251;23;20166;-83
2023/06/02 11:36:59;;;;;;;4.40;2.40;;;;;;;;;;6215163;23;20218;-84
2023/06/02 11:39:32;;;;;;;8.93;2.03;;;;;;;;;;6213082;23;20186;-84
2023/06/02 11:42:07;;;;;;;4.13;2.97;;;;;;;;;;6215054;23;20174;-84
2023/06/02 11:44:53;;;;;;;3.93;1.67;;;;;;;;;;6213823;23;20170;-84
2023/06/02 11:47:25;;;;;;;1.07;1.07;;;;;;;;;;6214089;23;20175;-84
2023/06/02 11:50:00;;;;;;;4.27;1.93;;;;;;;;;;6214107;23;20175;-85
2023/06/02 11:52:36;;;;;;;1.50;1.40;;;;;;;;;;6213433;23;20178;-85
2023/06/02 11:55:10;;;;;;;1.23;1.23;;;;;;;;;;6213414;23;20210;-86
2023/06/02 11:57:45;;;;;;;6.23;2.90;;;;;;;;;;6214619;23;20201;-85
2023/06/02 12:00:16;;;;;;;9.07;3.23;;;;;;;;;;6215307;23;20177;-85
2023/06/02 12:02:51;;;;;;;2.10;1.90;;;;;;;;;;6213209;23;20231;-85
2023/06/02 12:05:37;;;;;;;7.87;2.93;;;;;;;;;;6214116;23;20167;-85
2023/06/02 12:08:25;;;;;;;;;;;;;;;;;;;;;
2023/06/02 12:10:56;;;;;;;1.63;1.53;;;;;;;;;;6213454;23;20181;-86
2023/06/02 12:13:35;;;;;;;2.30;1.57;;;;;;;;;;6213595;23;20177;-85
2023/06/02 12:16:27;;;;;;;3.30;3.10;;;;;;;;;;6211914;23;20183;-86
2023/06/02 12:19:13;;;;;;;1.37;1.07;;;;;;;;;;6213540;23;20193;-85
2023/06/02 12:21:49;;;;;;;10.83;2.50;;;;;;;;;;6214113;23;20182;-86
2023/06/02 12:24:37;;;;;;;4.33;3.07;;;;;;;;;;6214146;23;20178;-84
2023/06/02 12:27:21;;;;;;;13.73;3.10;;;;;;;;;;6213720;23;20188;-85
2023/06/02 12:29:56;;;;;;;7.00;3.23;;;;;;;;;;6213845;23;20181;-83
2023/06/02 12:32:29;;;;;;;6.40;3.27;;;;;;;;;;6213861;23;20193;-83
2023/06/02 12:34:59;;;;;;;7.10;2.67;;;;;;;;;;6212697;23;20208;-85
2023/06/02 12:37:38;;;;;;;2.30;1.70;;;;;;;;;;6213067;23;20214;-84
2023/06/02 12:40:14;;;;;;;1.03;1.00;;;;;;;;;;6214055;23;20174;-83
2023/06/02 12:42:56;;;;;;;;;;;;;;;;;;;;;
2023/06/02 12:45:35;;;;;;;2.10;1.70;;;;;;;;;;6213237;23;20177;-84
2023/06/02 12:48:22;;;;;;;7.03;2.03;;;;;;;;;;6214723;23;20172;-86
2023/06/02 12:50:53;;;;;;;0.93;0.87;;;;;;;;;;6214051;23;20189;-84
2023/06/02 12:53:23;;;;;;;2.07;1.40;;;;;;;;;;6213601;23;20185;-85
2023/06/02 12:56:00;;;;;;;6.30;1.80;;;;;;;;;;6213112;23;20212;-84
2023/06/02 12:58:40;;;;;;;;;;;;;;;;;;;;;
2023/06/02 13:01:18;;;;;;;3.53;1.43;;;;;;;;;;6214075;23;20174;-84
2023/06/02 13:03:49;;;;;;;3.03;1.80;;;;;;;;;;6213288;23;20177;-87
2023/06/02 13:06:56;;;;;;;3.77;2.27;;;;;;;;;;6212257;23;20178;-89
2023/06/02 13:09:31;;;;;;;14.27;3.77;;;;;;;;;;6213450;23;20180;-86
2023/06/02 13:12:04;;;;;;;7.47;2.67;;;;;;;;;;6212988;23;20181;-85
2023/06/02 13:14:37;;;;;;;8.03;3.07;;;;;;;;;;6212728;23;20173;-85
2023/06/02 13:17:09;;;;;;;6.60;4.63;;;;;;;;;;6212930;23;20201;-86
2023/06/02 13:19:39;;;;;;;3.10;1.90;;;;;;;;;;6212478;23;20185;-85
2023/06/02 13:22:16;;;;;;;7.07;2.63;;;;;;;;;;6212490;23;20171;-85
2023/06/02 13:24:47;;;;;;;1.60;1.33;;;;;;;;;;6211986;23;20178;-86
2023/06/02 13:27:20;;;;;;;2.70;1.67;;;;;;;;;;6213263;23;20187;-87
2023/06/02 13:30:13;;;;;;;8.77;3.77;;;;;;;;;;6211814;23;20168;-87
2023/06/02 13:32:47;;;;;;;2.63;1.07;;;;;;;;;;6214316;23;20219;-87
2023/06/02 13:35:25;;;;;;;3.43;3.13;;;;;;;;;;6212330;23;20185;-87
2023/06/02 13:37:56;;;;;;;2.30;1.70;;;;;;;;;;6213336;23;20197;-86
2023/06/02 13:40:29;;;;;;;4.60;2.80;;;;;;;;;;6214652;23;20222;-85
2023/06/02 13:43:00;;;;;;;23.13;2.23;;;;;;;;;;6213962;23;20180;-84
2023/06/02 13:45:30;;;;;;;5.47;2.40;;;;;;;;;;6212524;23;20241;-84
2023/06/02 13:48:05;;;;;;;2.13;1.20;;;;;;;;;;6212572;23;20168;-85
2023/06/02 13:50:41;;;;;;;1.90;1.33;;;;;;;;;;6213651;23;20193;-85
2023/06/02 13:53:10;;;;;;;2.30;1.33;;;;;;;;;;6212918;23;20218;-86
2023/06/02 13:55:50;;;;;;;3.83;2.60;;;;;;;;;;6212351;23;20241;-86
2023/06/02 13:58:22;;;;;;;2.57;1.47;;;;;;;;;;6212944;23;20203;-85
2023/06/02 14:00:51;;;;;;;1.67;1.17;;;;;;;;;;6213171;23;20179;-84
2023/06/02 14:03:26;;;;;;;8.73;3.33;;;;;;;;;;6212802;23;20180;-85
2023/06/02 14:05:58;;;;;;;1.03;0.87;;;;;;;;;;6212778;23;20175;-85
2023/06/02 14:08:37;;;;;;;2.10;1.10;;;;;;;;;;6212707;23;20177;-85
2023/06/02 14:11:29;;;;;;;2.17;1.47;;;;;;;;;;6212436;23;20193;-84
2023/06/02 14:14:01;;;;;;;2.03;0.97;;;;;;;;;;6212409;23;20196;-81
2023/06/02 14:16:31;;;;;;;2.30;1.00;;;;;;;;;;6212537;23;20182;-84
2023/06/02 14:19:03;;;;;;;7.57;2.43;;;;;;;;;;6212971;23;20190;-84
2023/06/02 14:21:42;;;;;;;6.00;1.87;;;;;;;;;;6212958;23;20219;-86
2023/06/02 14:24:16;;;;;;;1.83;1.70;;;;;;;;;;6212598;23;20185;-84
2023/06/02 14:26:51;;;;;;;3.40;1.47;;;;;;;;;;6212740;23;20246;-86
2023/06/02 14:29:25;;;;;;;1.70;1.40;;;;;;;;;;6212479;23;20171;-84
2023/06/02 14:31:54;;;;;;;0.83;0.83;;;;;;;;;;6214244;23;20175;-84
2023/06/02 14:34:23;;;;;;;1.80;1.13;;;;;;;;;;6214786;23;20168;-84
2023/06/02 14:37:16;;;;;;;0.80;0.80;;;;;;;;;;6216120;23;20179;-87
2023/06/02 14:39:45;;;;;;;1.77;0.80;;;;;;;;;;6216013;23;20193;-86
2023/06/02 14:42:15;;;;;;;3.40;2.10;;;;;;;;;;6216676;23;20176;-87
2023/06/02 14:44:46;;;;;;;2.23;1.40;;;;;;;;;;6215643;23;20172;-87
2023/06/02 14:47:18;;;;;;;1.13;1.13;;;;;;;;;;6216725;23;20181;-84
2023/06/02 14:49:47;;;;;;;1.43;1.33;;;;;;;;;;6215966;23;20171;-84
2023/06/02 14:52:17;;;;;;;2.30;1.23;;;;;;;;;;6215194;23;20183;-89
2023/06/02 14:54:52;;;;;;;2.00;0.87;;;;;;;;;;6215999;23;20205;-87
2023/06/02 14:57:22;;;;;;;1.73;1.07;;;;;;;;;;6215999;23;20220;-87
2023/06/02 14:59:53;;;;;;;3.40;1.07;;;;;;;;;;6216389;23;20198;-88
2023/06/02 15:02:25;;;;;;;0.87;0.87;;;;;;;;;;6216157;23;20167;-86
2023/06/02 15:04:55;;;;;;;1.73;0.97;;;;;;;;;;6216015;23;20179;-86
2023/06/02 15:07:30;;;;;;;1.20;1.10;;;;;;;;;;6216623;23;20300;-86
2023/06/02 15:09:59;;;;;;;1.53;1.43;;;;;;;;;;6215604;23;20172;-84
2023/06/02 15:12:38;;;;;;;0.63;0.63;;;;;;;;;;6216455;23;20175;-84
2023/06/02 15:15:12;;;;;;;1.70;0.70;;;;;;;;;;6215304;23;20177;-84
2023/06/02 15:17:41;;;;;;;2.17;1.27;;;;;;;;;;6214593;23;20183;-84
2023/06/02 15:20:10;;;;;;;1.13;1.03;;;;;;;;;;6214843;23;20272;-84
2023/06/02 15:22:39;;;;;;;0.73;0.60;;;;;;;;;;6215480;23;20185;-84